Time;durP1;ratioP1;P1;durP2;ratioP2;P2;SDS_P1;SDS_P2;PMS_P1;PMS_P2;Temp;Humidity;BMP_temperature;BMP_pressure;BME280_temperature;BME280_humidity;BME280_pressure;Samples;Min_cycle;Max_cycle;Signal;HPM_P1;HPM_P2
2022/11/23 00:01:38;;;;;;;65.88;26.42;;;;;;;6.75;60.53;100015.44;4968216;28;99403;-69
2022/11/23 00:04:06;;;;;;;69.53;28.00;;;;;;;6.77;60.46;100021.47;4966120;28;99142;-70
2022/11/23 00:06:33;;;;;;;70.85;26.95;;;;;;;6.67;60.10;100014.81;4967636;28;96889;-69
2022/11/23 00:08:59;;;;;;;67.88;26.55;;;;;;;6.82;60.32;100005.59;4971990;28;96761;-71
2022/11/23 00:11:27;;;;;;;68.40;26.73;;;;;;;6.95;59.93;100017.44;4970837;28;99767;-70
2022/11/23 00:14:02;;;;;;;65.13;25.73;;;;;;;6.94;59.83;100006.97;4970069;28;97864;-70
2022/11/23 00:16:30;;;;;;;66.05;27.80;;;;;;;6.89;59.96;100007.13;4961382;28;97048;-69
2022/11/23 00:18:58;;;;;;;65.13;27.77;;;;;;;6.83;60.32;100007.28;4965780;28;96813;-70
2022/11/23 00:21:26;;;;;;;66.45;26.75;;;;;;;6.86;59.91;100012.44;4965368;28;98946;-69
2022/11/23 00:23:53;;;;;;;63.08;26.55;;;;;;;6.99;59.74;100008.53;4964595;28;99010;-69
2022/11/23 00:26:20;;;;;;;65.18;26.55;;;;;;;7.07;59.59;100010.91;4962863;28;96785;-70
2022/11/23 00:28:47;;;;;;;61.75;27.45;;;;;;;6.97;60.06;100009.47;4965067;28;96813;-69
2022/11/23 00:31:16;;;;;;;61.72;26.83;;;;;;;6.65;60.44;100003.47;4966568;28;99442;-70
2022/11/23 00:33:43;;;;;;;67.82;25.75;;;;;;;6.62;60.66;99998.34;4963636;28;98947;-70
2022/11/23 00:36:12;;;;;;;59.22;25.42;;;;;;;6.62;60.86;100002.72;4966557;28;98583;-69
2022/11/23 00:38:39;;;;;;;66.55;25.90;;;;;;;6.64;60.61;100006.16;4963671;28;98640;-69
2022/11/23 00:41:11;;;;;;;59.92;26.20;;;;;;;6.71;60.47;100007.69;4968011;28;99188;-70
2022/11/23 00:43:40;;;;;;;54.60;25.17;;;;;;;6.88;60.13;100008.03;4968413;28;98967;-68
2022/11/23 00:46:10;;;;;;;61.75;27.35;;;;;;;6.83;60.44;100016.97;4968898;28;97006;-69
2022/11/23 00:48:37;;;;;;;61.75;25.30;;;;;;;6.72;60.17;100036.50;4969256;28;96938;-71
2022/11/23 00:51:06;;;;;;;59.13;25.92;;;;;;;6.86;60.46;100033.47;4967041;28;99095;-70
2022/11/23 00:53:36;;;;;;;66.15;26.10;;;;;;;7.01;60.12;100034.75;4966811;28;98776;-69
2022/11/23 00:56:03;;;;;;;65.13;27.25;;;;;;;6.89;59.99;100038.63;4964313;28;97152;-69
2022/11/23 00:58:30;;;;;;;66.53;25.50;;;;;;;6.83;59.87;100035.34;4965493;28;96967;-69
2022/11/23 01:01:01;;;;;;;66.45;27.15;;;;;;;6.87;60.00;100032.56;4963947;28;98292;-69
2022/11/23 01:03:29;;;;;;;66.25;26.13;;;;;;;6.78;60.21;100036.31;4972394;28;98841;-68
2022/11/23 01:06:01;;;;;;;63.47;27.50;;;;;;;6.88;60.12;100042.16;4960428;28;97960;-68
2022/11/23 01:08:28;;;;;;;65.90;26.05;;;;;;;6.84;60.07;100039.66;4959293;28;96853;-68
2022/11/23 01:10:58;;;;;;;59.15;25.40;;;;;;;7.06;59.66;100022.31;4969559;28;98862;-69
2022/11/23 01:13:25;;;;;;;61.58;25.20;;;;;;;7.10;59.67;100026.56;4968253;28;101302;-69
2022/11/23 01:15:51;;;;;;;66.93;26.52;;;;;;;6.80;60.54;100029.28;4966545;28;97772;-69
2022/11/23 01:18:18;;;;;;;61.10;26.00;;;;;;;6.74;60.62;100032.09;4968271;28;98656;-69
2022/11/23 01:20:44;;;;;;;59.53;26.70;;;;;;;6.92;60.04;100020.13;4965213;28;99333;-69
2022/11/23 01:23:12;;;;;;;61.40;25.55;;;;;;;6.96;60.10;100026.13;4969243;28;100888;-69
2022/11/23 01:25:39;;;;;;;60.53;25.65;;;;;;;6.92;59.95;100022.75;4966482;28;97335;-70
2022/11/23 01:28:05;;;;;;;57.17;25.98;;;;;;;6.87;60.23;100031.69;4968885;28;98489;-69
2022/11/23 01:30:33;;;;;;;60.15;25.92;;;;;;;7.02;59.80;100023.34;4963945;28;98938;-68
2022/11/23 01:32:59;;;;;;;62.40;25.95;;;;;;;7.06;59.77;100030.19;4967332;28;97707;-69
2022/11/23 01:35:26;;;;;;;57.25;25.17;;;;;;;6.91;59.89;100036.78;4964554;28;96984;-69
2022/11/23 01:37:52;;;;;;;68.90;25.75;;;;;;;6.82;60.30;100033.63;4967761;28;97487;-69
2022/11/23 01:40:20;;;;;;;60.17;26.48;;;;;;;7.07;60.13;100035.41;4970108;28;98905;-69
2022/11/23 01:42:52;;;;;;;59.15;25.23;;;;;;;6.97;59.92;100041.00;4969976;28;98894;-69
2022/11/23 01:45:35;;;;;;;60.00;25.85;;;;;;;7.17;59.74;100049.09;4971196;28;96796;-69
2022/11/23 01:48:05;;;;;;;58.05;25.20;;;;;;;6.92;59.97;100040.28;4968631;28;96713;-72
2022/11/23 01:50:32;;;;;;;55.55;24.98;;;;;;;7.26;59.42;100038.28;4968608;28;98854;-68
2022/11/23 01:53:01;;;;;;;58.28;26.77;;;;;;;7.29;59.27;100042.56;4973650;28;98850;-69
2022/11/23 01:55:29;;;;;;;54.53;25.38;;;;;;;7.08;59.62;100045.00;4967880;28;97863;-68
2022/11/23 01:57:56;;;;;;;59.92;26.63;;;;;;;7.26;59.19;100045.31;4969886;28;96865;-69
2022/11/23 02:00:23;;;;;;;58.90;24.30;;;;;;;7.22;59.42;100041.91;4971430;28;99348;-68
2022/11/23 02:02:55;;;;;;;56.90;25.20;;;;;;;7.24;59.36;100042.72;4970960;28;98837;-69
2022/11/23 02:05:27;;;;;;;61.38;25.85;;;;;;;7.03;59.87;100038.16;4968422;28;97303;-69
2022/11/23 02:07:54;;;;;;;58.05;25.50;;;;;;;7.40;59.04;100037.84;4974592;28;97000;-69
2022/11/23 02:10:22;;;;;;;62.15;25.92;;;;;;;7.33;58.84;100039.81;4971435;28;98878;-69
2022/11/23 02:12:50;;;;;;;58.60;25.13;;;;;;;6.95;60.07;100051.56;4971681;28;99390;-70
2022/11/23 02:15:17;;;;;;;57.60;24.98;;;;;;;7.29;59.32;100045.19;4970304;28;96925;-70
2022/11/23 02:17:44;;;;;;;59.03;24.58;;;;;;;7.31;59.03;100046.00;4964946;28;97481;-69
2022/11/23 02:20:13;;;;;;;58.05;24.02;;;;;;;7.18;59.58;100035.06;4971579;28;99125;-69
2022/11/23 02:22:50;;;;;;;57.85;24.42;;;;;;;7.47;58.49;100039.34;4974195;28;98693;-68
2022/11/23 02:25:27;;;;;;;57.00;24.85;;;;;;;7.41;58.93;100034.31;4968702;28;97438;-69
2022/11/23 02:27:55;;;;;;;55.15;25.00;;;;;;;7.60;58.24;100033.63;4964781;28;97450;-69
2022/11/23 02:30:22;;;;;;;59.30;25.42;;;;;;;7.58;58.47;100029.31;4969677;28;99577;-70
2022/11/23 02:32:49;;;;;;;57.65;24.88;;;;;;;7.43;58.94;100028.06;4967837;28;99015;-68
2022/11/23 02:35:15;;;;;;;52.83;24.75;;;;;;;7.29;58.95;100026.78;4969586;28;97725;-70
2022/11/23 02:37:43;;;;;;;51.58;23.13;;;;;;;7.37;59.21;100027.41;4969769;28;98745;-69
2022/11/23 02:40:20;;;;;;;54.80;25.17;;;;;;;7.51;58.64;100020.78;4972863;28;98879;-69
2022/11/23 02:42:49;;;;;;;54.40;24.23;;;;;;;7.21;59.24;100019.19;4969696;28;99278;-69
2022/11/23 02:45:26;;;;;;;57.70;25.48;;;;;;;7.29;59.41;100016.28;4968146;28;96809;-70
2022/11/23 02:47:53;;;;;;;61.92;27.23;;;;;;;7.26;59.25;100026.91;4966903;28;96971;-69
2022/11/23 02:50:22;;;;;;;64.38;27.90;;;;;;;7.33;59.13;100031.06;4970441;28;97830;-69
2022/11/23 02:52:51;;;;;;;65.05;28.42;;;;;;;7.38;58.99;100029.13;4969906;28;99214;-69
2022/11/23 02:55:17;;;;;;;60.90;28.08;;;;;;;7.31;58.90;100031.09;4970339;28;97552;-69
2022/11/23 02:57:43;;;;;;;62.25;27.30;;;;;;;7.11;59.88;100029.13;4966423;28;97158;-69
2022/11/23 03:00:11;;;;;;;54.92;26.60;;;;;;;7.19;59.45;100035.00;4967203;28;99175;-69
2022/11/23 03:02:39;;;;;;;60.42;25.75;;;;;;;7.37;58.81;100041.41;4971635;28;99855;-69
2022/11/23 03:05:06;;;;;;;57.17;25.95;;;;;;;7.56;58.49;100045.13;4969259;28;96815;-69
2022/11/23 03:07:33;;;;;;;56.53;24.58;;;;;;;7.29;58.92;100046.06;4971088;28;97342;-70
2022/11/23 03:09:59;;;;;;;53.70;24.33;;;;;;;7.24;59.34;100045.34;4971140;28;99296;-69
2022/11/23 03:12:26;;;;;;;51.75;24.27;;;;;;;7.12;59.25;100046.63;4971387;28;99595;-69
2022/11/23 03:14:52;;;;;;;56.63;24.10;;;;;;;7.15;59.63;100046.50;4968503;28;96795;-69
2022/11/23 03:18:02;;;;;;;52.13;24.35;;;;;;;7.16;59.00;100047.38;4968067;28;98721;-69
2022/11/23 03:20:30;;;;;;;54.72;24.38;;;;;;;7.01;59.76;100053.13;4969792;28;99776;-70
2022/11/23 03:22:56;;;;;;;55.40;24.38;;;;;;;7.09;59.73;100053.72;4969410;28;98943;-68
2022/11/23 03:25:22;;;;;;;55.45;24.67;;;;;;;6.97;60.05;100057.59;4969046;28;97161;-69
2022/11/23 03:27:49;;;;;;;55.47;25.13;;;;;;;6.96;59.91;100048.00;4968194;28;96828;-69
2022/11/23 03:30:15;;;;;;;51.70;23.15;;;;;;;6.84;60.37;100043.16;4972733;28;98960;-70
2022/11/23 03:32:42;;;;;;;59.78;24.80;;;;;;;6.89;60.27;100045.66;4971048;28;98792;-69
2022/11/23 03:35:09;;;;;;;49.28;23.90;;;;;;;6.80;60.32;100050.28;4965224;28;97656;-69
2022/11/23 03:37:36;;;;;;;57.72;24.00;;;;;;;6.76;60.78;100055.69;4971200;28;97230;-70
2022/11/23 03:40:06;;;;;;;60.42;24.33;;;;;;;6.76;60.73;100051.25;4968676;28;99098;-70
2022/11/23 03:42:33;;;;;;;54.90;25.13;;;;;;;6.80;60.48;100057.28;4967512;28;99216;-70
2022/11/23 03:44:59;;;;;;;54.53;23.98;;;;;;;6.81;60.77;100051.13;4963485;28;97025;-69
2022/11/23 03:47:25;;;;;;;60.53;23.70;;;;;;;6.84;60.53;100052.78;4966634;28;97459;-71
2022/11/23 03:49:52;;;;;;;56.63;24.50;;;;;;;6.69;60.68;100052.38;4965740;28;100796;-70
2022/11/23 03:52:18;;;;;;;51.50;24.20;;;;;;;6.77;60.53;100046.88;4967974;28;98819;-69
2022/11/23 03:54:46;;;;;;;50.30;23.85;;;;;;;6.62;60.96;100055.22;4967610;28;96883;-68
2022/11/23 03:57:13;;;;;;;53.70;24.58;;;;;;;6.57;61.07;100049.25;4971565;28;96855;-69
2022/11/23 03:59:39;;;;;;;54.22;24.63;;;;;;;6.76;60.87;100046.00;4968366;28;98859;-68
2022/11/23 04:02:06;;;;;;;58.55;24.83;;;;;;;6.99;59.95;100050.56;4971409;28;99068;-69
2022/11/23 04:04:33;;;;;;;53.10;24.35;;;;;;;7.00;60.13;100056.66;4968137;28;96752;-69
2022/11/23 04:07:00;;;;;;;57.30;23.52;;;;;;;6.76;59.94;100053.06;4966419;28;97323;-69
2022/11/23 04:09:26;;;;;;;57.20;24.00;;;;;;;6.57;60.55;100055.34;4966865;28;99227;-71
2022/11/23 04:11:54;;;;;;;55.90;23.60;;;;;;;6.72;60.31;100052.28;4970617;28;98793;-69
2022/11/23 04:14:20;;;;;;;61.30;24.30;;;;;;;6.81;60.04;100051.13;4969712;28;96813;-68
2022/11/23 04:16:47;;;;;;;53.08;23.83;;;;;;;7.03;59.77;100056.56;4965929;28;97306;-68
2022/11/23 04:19:13;;;;;;;50.78;23.73;;;;;;;6.80;59.80;100050.28;4969726;28;98964;-68
2022/11/23 04:21:40;;;;;;;55.25;23.85;;;;;;;6.92;59.97;100048.16;4965065;28;98901;-69
2022/11/23 04:24:06;;;;;;;52.67;24.30;;;;;;;7.05;59.83;100052.13;4961800;28;101357;-70
2022/11/23 04:26:33;;;;;;;57.38;25.00;;;;;;;6.85;59.62;100049.25;4964624;28;96853;-69
2022/11/23 04:29:01;;;;;;;53.45;24.20;;;;;;;6.75;60.16;100046.94;4970510;28;99019;-69
2022/11/23 04:31:27;;;;;;;56.28;23.52;;;;;;;6.77;60.33;100055.59;4967557;28;98796;-70
2022/11/23 04:33:54;;;;;;;50.80;23.08;;;;;;;6.93;60.03;100047.25;4970735;28;99214;-70
2022/11/23 04:36:21;;;;;;;57.33;25.45;;;;;;;6.65;60.42;100053.34;4963400;28;96941;-69
2022/11/23 04:38:48;;;;;;;50.17;23.65;;;;;;;6.72;60.08;100056.66;4970122;28;99364;-68
2022/11/23 04:41:14;;;;;;;56.63;24.10;;;;;;;6.88;59.99;100062.31;4970345;28;101389;-70
2022/11/23 04:43:41;;;;;;;56.55;24.67;;;;;;;6.71;60.42;100065.44;4968488;28;96910;-69
2022/11/23 04:46:10;;;;;;;51.42;23.08;;;;;;;6.54;61.02;100063.34;4962262;28;98857;-70
2022/11/23 04:48:36;;;;;;;56.92;24.08;;;;;;;6.73;60.21;100058.38;4969099;28;98915;-69
2022/11/23 04:51:03;;;;;;;54.83;24.27;;;;;;;6.59;60.37;100060.56;4970163;28;98671;-69
2022/11/23 04:53:29;;;;;;;49.67;23.30;;;;;;;6.73;60.12;100054.00;4970324;28;96859;-69
2022/11/23 04:55:57;;;;;;;53.50;23.60;;;;;;;6.75;60.25;100062.69;4966605;28;100833;-68
2022/11/23 04:58:24;;;;;;;54.50;23.50;;;;;;;6.66;60.39;100062.97;4964737;28;98839;-69
2022/11/23 05:00:50;;;;;;;55.67;24.08;;;;;;;6.75;60.22;100067.94;4969457;28;99087;-68
2022/11/23 05:03:18;;;;;;;49.60;23.08;;;;;;;6.84;59.81;100061.53;4964858;28;97007;-70
2022/11/23 05:05:45;;;;;;;54.00;23.35;;;;;;;6.75;60.04;100061.84;4965181;28;96833;-70
2022/11/23 05:08:11;;;;;;;55.67;24.52;;;;;;;6.90;59.78;100065.72;4963118;28;99221;-68
2022/11/23 05:10:38;;;;;;;56.20;23.90;;;;;;;6.77;59.91;100071.38;4969301;28;97928;-69
2022/11/23 05:13:04;;;;;;;54.92;24.13;;;;;;;6.77;60.12;100068.75;4967662;28;98843;-69
2022/11/23 05:15:31;;;;;;;54.85;23.75;;;;;;;6.75;60.19;100062.69;4964200;28;98031;-69
2022/11/23 05:18:01;;;;;;;52.17;23.05;;;;;;;6.97;59.65;100059.38;4964988;28;99100;-69
2022/11/23 05:20:29;;;;;;;51.25;22.05;;;;;;;6.87;59.53;100058.81;4972740;28;98771;-69
2022/11/23 05:22:55;;;;;;;54.92;23.08;;;;;;;6.95;59.46;100063.84;4971670;28;97118;-69
2022/11/23 05:25:22;;;;;;;51.33;22.65;;;;;;;7.11;59.30;100062.44;4972371;28;96920;-69
2022/11/23 05:27:48;;;;;;;50.97;22.83;;;;;;;7.11;59.30;100054.53;4972877;28;101479;-69
2022/11/23 05:30:15;;;;;;;53.03;23.02;;;;;;;7.05;59.22;100057.38;4971479;28;99461;-69
2022/11/23 05:32:41;;;;;;;47.92;22.20;;;;;;;7.11;59.09;100059.81;4972576;28;96784;-69
2022/11/23 05:35:09;;;;;;;51.45;22.77;;;;;;;7.19;58.78;100060.41;4968838;28;97399;-70
2022/11/23 05:37:37;;;;;;;56.97;24.35;;;;;;;6.95;59.48;100053.34;4968303;28;99272;-71
2022/11/23 05:40:08;;;;;;;48.75;21.38;;;;;;;7.17;58.85;100049.09;4970044;28;98825;-68
2022/11/23 05:42:35;;;;;;;48.75;21.27;;;;;;;7.16;59.08;100052.63;4971589;28;96833;-69
2022/11/23 05:45:01;;;;;;;51.30;22.90;;;;;;;7.22;58.67;100052.41;4971639;28;99123;-71
2022/11/23 05:47:28;;;;;;;47.40;21.48;;;;;;;6.99;58.98;100060.19;4972332;28;100415;-69
2022/11/23 05:49:54;;;;;;;50.95;22.45;;;;;;;7.25;58.51;100056.72;4971651;28;97723;-69
2022/11/23 05:52:20;;;;;;;51.67;21.95;;;;;;;7.22;58.75;100055.91;4970913;28;96745;-69
2022/11/23 05:54:48;;;;;;;53.00;24.65;;;;;;;7.23;58.45;100054.16;4970347;28;97991;-69
2022/11/23 05:57:16;;;;;;;49.00;20.65;;;;;;;7.10;59.06;100050.19;4971793;28;100699;-68
2022/11/23 05:59:43;;;;;;;40.53;20.90;;;;;;;6.94;59.10;100051.63;4969523;28;99196;-69
2022/11/23 06:02:09;;;;;;;47.85;21.45;;;;;;;7.12;59.12;100051.00;4970594;28;98222;-69
2022/11/23 06:04:36;;;;;;;49.03;21.83;;;;;;;7.13;58.63;100050.97;4972889;28;97034;-71
2022/11/23 06:07:02;;;;;;;44.08;21.50;;;;;;;7.07;58.88;100037.19;4970384;28;99375;-68
2022/11/23 06:09:28;;;;;;;53.45;21.83;;;;;;;7.08;58.94;100046.78;4968917;28;99056;-68
2022/11/23 06:11:57;;;;;;;49.28;20.05;;;;;;;7.03;58.97;100056.56;4962413;28;97764;-69
2022/11/23 06:14:24;;;;;;;43.35;20.52;;;;;;;6.84;59.30;100058.03;4970934;28;96815;-70
2022/11/23 06:16:51;;;;;;;46.33;20.92;;;;;;;6.84;59.62;100055.41;4969108;28;100621;-69
2022/11/23 06:19:17;;;;;;;51.90;21.65;;;;;;;6.78;59.60;100072.22;4968616;28;98892;-70
2022/11/23 06:21:44;;;;;;;46.63;20.63;;;;;;;6.65;60.03;100066.50;4970263;28;96995;-69
2022/11/23 06:24:11;;;;;;;46.67;21.58;;;;;;;6.59;60.27;100078.94;4968423;28;97315;-69
2022/11/23 06:26:37;;;;;;;48.53;21.70;;;;;;;6.73;59.61;100067.13;4967381;28;99435;-69
2022/11/23 06:29:05;;;;;;;44.58;20.23;;;;;;;6.71;59.96;100070.69;4965932;28;97890;-69
2022/11/23 06:31:31;;;;;;;48.33;21.17;;;;;;;6.68;59.63;100086.56;4966410;28;96742;-69
2022/11/23 06:33:58;;;;;;;46.20;21.73;;;;;;;6.71;59.55;100076.81;4970235;28;98378;-69
2022/11/23 06:36:25;;;;;;;49.17;21.52;;;;;;;6.74;59.87;100081.13;4970532;28;99548;-69
2022/11/23 06:38:51;;;;;;;48.63;20.85;;;;;;;6.61;60.14;100080.63;4970909;28;98877;-72
2022/11/23 06:41:18;;;;;;;47.50;22.88;;;;;;;6.72;59.65;100075.03;4967646;28;96911;-69
2022/11/23 06:43:46;;;;;;;54.28;21.80;;;;;;;6.70;59.62;100079.47;4969782;28;99308;-69
2022/11/23 06:46:14;;;;;;;48.03;20.55;;;;;;;6.58;59.77;100085.94;4971068;28;98974;-69
2022/11/23 06:48:43;;;;;;;45.35;21.35;;;;;;;6.82;59.37;100084.38;4970450;28;101438;-70
2022/11/23 06:51:09;;;;;;;44.47;19.90;;;;;;;6.63;59.95;100094.53;4962705;28;96902;-70
2022/11/23 06:53:36;;;;;;;54.10;25.20;;;;;;;6.49;60.12;100085.38;4970382;28;97077;-69
2022/11/23 06:56:03;;;;;;;51.42;22.52;;;;;;;6.69;59.65;100090.91;4967699;28;99307;-69
2022/11/23 06:58:30;;;;;;;56.80;23.67;;;;;;;6.83;59.39;100083.44;4963221;28;99110;-69
2022/11/23 07:01:00;;;;;;;52.83;21.75;;;;;;;6.84;59.32;100092.19;4967603;28;96813;-70
2022/11/23 07:03:28;;;;;;;48.42;21.15;;;;;;;6.62;59.91;100094.63;4960028;28;97350;-70
2022/11/23 07:05:55;;;;;;;56.30;23.08;;;;;;;6.46;59.86;100094.19;4963143;28;98910;-69
2022/11/23 07:08:22;;;;;;;53.33;21.80;;;;;;;6.50;59.82;100092.34;4965053;28;99173;-70
2022/11/23 07:10:49;;;;;;;48.00;21.92;;;;;;;6.63;59.27;100089.28;4965864;28;98699;-70
2022/11/23 07:13:15;;;;;;;48.67;21.85;;;;;;;6.89;58.95;100090.28;4962175;28;98724;-69
2022/11/23 07:15:42;;;;;;;63.17;22.65;;;;;;;6.83;59.36;100093.13;4961298;28;100144;-70
2022/11/23 07:18:11;;;;;;;52.75;21.58;;;;;;;6.84;58.90;100098.28;4963603;28;100994;-70
2022/11/23 07:20:39;;;;;;;46.25;21.35;;;;;;;6.63;59.65;100109.47;4967174;28;97290;-70
2022/11/23 07:23:07;;;;;;;49.47;22.13;;;;;;;6.52;59.89;100107.13;4963794;28;98778;-69
2022/11/23 07:25:37;;;;;;;51.58;20.70;;;;;;;6.69;59.74;100109.28;4963171;28;98225;-69
2022/11/23 07:28:05;;;;;;;47.33;22.15;;;;;;;6.83;59.45;100111.50;4966021;28;98796;-70
2022/11/23 07:30:33;;;;;;;49.38;22.17;;;;;;;6.99;58.86;100108.34;4966798;28;96810;-69
2022/11/23 07:32:59;;;;;;;74.97;24.65;;;;;;;6.97;58.75;100119.78;4967850;28;96963;-69
2022/11/23 07:35:26;;;;;;;48.95;21.00;;;;;;;6.82;59.10;100121.13;4961630;28;100615;-70
2022/11/23 07:37:54;;;;;;;55.38;23.38;;;;;;;6.86;59.22;100120.13;4968545;28;99009;-71
2022/11/23 07:40:20;;;;;;;54.10;23.05;;;;;;;6.96;58.91;100118.94;4967270;28;96942;-70
2022/11/23 07:42:47;;;;;;;47.92;22.60;;;;;;;6.84;59.54;100124.56;4964603;28;98291;-72
2022/11/23 07:45:14;;;;;;;54.25;22.52;;;;;;;6.89;58.97;100122.69;4965519;28;98975;-69
2022/11/23 07:47:40;;;;;;;50.63;23.02;;;;;;;6.92;59.33;100125.19;4965123;28;99117;-69
2022/11/23 07:50:35;;;;;;;;;;;;;;;;;;;;;
2022/11/23 07:53:18;;;;;;;53.22;22.85;;;;;;;7.31;58.06;100130.97;4966877;28;116779;-69
2022/11/23 07:55:45;;;;;;;50.38;22.48;;;;;;;7.45;57.57;100127.91;4964173;28;99628;-72
2022/11/23 07:58:12;;;;;;;49.55;23.40;;;;;;;7.36;57.34;100136.94;4969584;28;98867;-71
2022/11/23 08:00:39;;;;;;;49.08;21.30;;;;;;;7.36;57.98;100131.69;4962156;28;97763;-70
2022/11/23 08:03:05;;;;;;;52.83;22.52;;;;;;;7.50;57.45;100134.72;4967439;28;97777;-71
2022/11/23 08:05:34;;;;;;;47.70;22.63;;;;;;;7.28;57.67;100138.09;4962196;28;98976;-71
2022/11/23 08:08:02;;;;;;;50.33;21.08;;;;;;;7.42;57.39;100144.63;4961483;28;99251;-71
2022/11/23 08:10:31;;;;;;;49.50;21.73;;;;;;;7.73;56.88;100138.38;4957897;28;97373;-71
2022/11/23 08:12:58;;;;;;;49.60;22.55;;;;;;;7.38;57.58;100143.00;4959366;28;97218;-69
2022/11/23 08:15:26;;;;;;;47.08;22.27;;;;;;;7.50;57.24;100142.63;4961301;28;101005;-70
2022/11/23 08:17:55;;;;;;;47.83;21.23;;;;;;;7.63;57.40;100150.09;4968003;28;102113;-72
2022/11/23 08:20:21;;;;;;;47.35;22.25;;;;;;;7.97;56.24;100142.81;4958309;28;97585;-70
2022/11/23 08:22:48;;;;;;;47.28;21.85;;;;;;;7.83;56.80;100155.56;4964415;28;97894;-71
2022/11/23 08:25:17;;;;;;;44.28;21.65;;;;;;;7.98;56.02;100145.38;4963050;28;99250;-72
2022/11/23 08:27:45;;;;;;;46.35;22.55;;;;;;;8.01;56.20;100147.91;4967883;28;98254;-71
2022/11/23 08:30:12;;;;;;;43.20;21.50;;;;;;;8.16;55.65;100157.03;4964635;28;96830;-71
2022/11/23 08:32:38;;;;;;;45.92;20.83;;;;;;;8.18;55.33;100155.22;4965997;28;97664;-71
2022/11/23 08:35:05;;;;;;;45.88;22.50;;;;;;;7.98;56.13;100147.16;4960372;28;98159;-70
2022/11/23 08:37:32;;;;;;;45.15;20.90;;;;;;;7.91;56.19;100158.78;4960796;28;100594;-72
2022/11/23 08:39:58;;;;;;;42.90;21.23;;;;;;;8.00;56.18;100147.97;4968579;28;98041;-71
2022/11/23 08:42:25;;;;;;;44.25;20.85;;;;;;;7.97;56.34;100148.06;4966425;28;97364;-72
2022/11/23 08:44:52;;;;;;;44.05;20.42;;;;;;;8.01;56.18;100149.66;4961019;28;101409;-70
2022/11/23 08:47:19;;;;;;;47.88;21.75;;;;;;;8.32;55.31;100147.72;4965526;28;99243;-71
2022/11/23 08:49:45;;;;;;;47.83;21.13;;;;;;;8.08;55.91;100153.81;4963509;28;97711;-70
2022/11/23 08:52:12;;;;;;;47.88;20.42;;;;;;;7.94;56.06;100162.16;4961947;28;101117;-70
2022/11/23 08:54:39;;;;;;;41.67;20.33;;;;;;;7.84;56.63;100166.03;4959921;28;98916;-70
2022/11/23 08:57:05;;;;;;;46.33;20.15;;;;;;;7.90;56.44;100154.44;4958031;28;101062;-71
2022/11/23 08:59:33;;;;;;;44.50;21.38;;;;;;;8.05;56.55;100155.69;4963851;28;96791;-71
2022/11/23 09:02:01;;;;;;;43.95;19.75;;;;;;;8.06;56.02;100160.91;4959258;28;97757;-70
2022/11/23 09:04:29;;;;;;;43.95;21.63;;;;;;;8.09;55.93;100166.06;4951781;28;98736;-70
2022/11/23 09:06:56;;;;;;;43.88;19.95;;;;;;;8.06;56.29;100158.28;4958740;28;100741;-69
2022/11/23 09:09:24;;;;;;;42.47;19.98;;;;;;;8.36;55.91;100167.75;4965412;28;97249;-70
2022/11/23 09:11:52;;;;;;;40.50;20.75;;;;;;;8.60;55.15;100159.91;4962654;28;97132;-71
2022/11/23 09:14:20;;;;;;;45.65;20.17;;;;;;;8.58;55.43;100157.31;4960539;28;99109;-71
2022/11/23 09:16:47;;;;;;;45.75;20.48;;;;;;;9.00;54.39;100160.09;4964379;28;99342;-70
2022/11/23 09:19:15;;;;;;;45.03;19.38;;;;;;;8.88;54.50;100155.31;4965877;28;99562;-70
2022/11/23 09:21:42;;;;;;;38.85;19.08;;;;;;;8.71;55.00;100157.72;4961178;28;98482;-73
2022/11/23 09:24:10;;;;;;;38.20;19.98;;;;;;;8.62;55.01;100152.78;4964565;28;98989;-71
2022/11/23 09:26:36;;;;;;;42.85;19.90;;;;;;;8.87;54.47;100145.69;4961947;28;98826;-71
2022/11/23 09:29:03;;;;;;;41.08;18.98;;;;;;;9.09;54.05;100146.59;4966234;28;96810;-70
2022/11/23 09:31:29;;;;;;;38.28;18.45;;;;;;;9.02;54.14;100157.41;4967757;28;99250;-70
2022/11/23 09:33:56;;;;;;;35.65;18.20;;;;;;;8.92;54.33;100151.66;4958548;28;99019;-71
2022/11/23 09:36:24;;;;;;;39.13;19.25;;;;;;;8.99;54.31;100154.91;4963955;28;98113;-72
2022/11/23 09:38:51;;;;;;;35.47;18.23;;;;;;;9.25;53.90;100143.38;4960163;28;96918;-69
2022/11/23 09:41:39;;;;;;;37.85;19.95;;;;;;;9.26;53.80;100145.06;4959728;28;99084;-70
2022/11/23 09:44:14;;;;;;;40.85;19.00;;;;;;;9.33;53.32;100143.91;4962722;28;98883;-71
2022/11/23 09:46:46;;;;;;;37.55;19.23;;;;;;;9.30;53.98;100139.63;4960198;28;99936;-70
2022/11/23 09:49:16;;;;;;;40.80;18.58;;;;;;;9.20;53.99;100144.38;4964457;28;97097;-71
2022/11/23 09:51:45;;;;;;;36.45;18.77;;;;;;;8.98;54.44;100151.44;4962873;28;97691;-71
2022/11/23 09:54:22;;;;;;;38.03;18.95;;;;;;;9.30;53.91;100144.03;4959267;28;98959;-70
2022/11/23 09:56:50;;;;;;;36.03;17.38;;;;;;;9.52;53.42;100136.97;4957040;28;98821;-71
2022/11/23 09:59:32;;;;;;;37.58;17.55;;;;;;;9.43;53.57;100140.84;4962354;28;96882;-70
2022/11/23 10:02:00;;;;;;;37.00;18.05;;;;;;;9.63;53.34;100137.41;4961352;28;98290;-70
2022/11/23 10:04:35;;;;;;;38.50;18.35;;;;;;;9.94;52.44;100140.47;4958688;28;101191;-70
2022/11/23 10:07:22;;;;;;;38.90;18.10;;;;;;;10.05;52.29;100137.34;4965022;28;97580;-71
2022/11/23 10:10:00;;;;;;;34.60;16.02;;;;;;;9.91;52.41;100137.94;4966578;28;98476;-70
2022/11/23 10:12:38;;;;;;;31.92;15.88;;;;;;;10.08;52.15;100129.31;4962245;28;97687;-70
2022/11/23 10:15:12;;;;;;;38.90;18.48;;;;;;;10.13;52.15;100126.47;4964624;28;99340;-71
2022/11/23 10:17:59;;;;;;;38.97;17.30;;;;;;;10.12;52.23;100130.03;4966815;28;99405;-72
2022/11/23 10:20:46;;;;;;;35.38;17.83;;;;;;;10.32;51.94;100130.91;4962920;28;98330;-73
2022/11/23 10:23:22;;;;;;;32.35;16.27;;;;;;;10.50;51.65;100123.13;4962380;28;97551;-72
2022/11/23 10:25:51;;;;;;;32.08;15.68;;;;;;;10.65;51.01;100125.91;4968049;28;99111;-71
2022/11/23 10:28:21;;;;;;;32.03;16.77;;;;;;;10.81;51.13;100130.50;4966890;28;99299;-71
2022/11/23 10:30:53;;;;;;;32.67;15.48;;;;;;;10.53;51.32;100126.47;4969551;28;97358;-70
2022/11/23 10:33:29;;;;;;;33.03;16.35;;;;;;;10.96;50.80;100125.34;4965913;28;97466;-71
2022/11/23 10:35:56;;;;;;;37.50;16.83;;;;;;;10.99;50.43;100129.63;4962101;28;98779;-70
2022/11/23 10:38:28;;;;;;;31.55;17.05;;;;;;;10.96;50.22;100120.06;4967089;28;98131;-71
2022/11/23 10:41:02;;;;;;;28.23;16.48;;;;;;;10.81;50.77;100122.56;4969899;28;96926;-71
2022/11/23 10:43:34;;;;;;;33.95;15.20;;;;;;;11.21;50.58;100122.41;4966323;28;96812;-71
2022/11/23 10:46:29;;;;;;;32.90;15.88;;;;;;;11.27;49.99;100119.47;4963995;28;98422;-70
2022/11/23 10:49:07;;;;;;;29.23;16.13;;;;;;;11.22;50.32;100113.56;4969445;28;99223;-70
2022/11/23 10:51:34;;;;;;;33.25;16.17;;;;;;;11.18;50.50;100118.13;4967656;28;97264;-70
2022/11/23 10:54:05;;;;;;;32.88;15.45;;;;;;;11.36;50.33;100111.06;4966947;28;97805;-71
2022/11/23 10:59:29;;;;;;;34.38;16.73;;;;;;;11.41;50.17;100117.03;4963500;28;97406;-70
2022/11/23 11:02:14;;;;;;;31.52;15.43;;;;;;;11.56;49.80;100118.91;4967318;28;98784;-71
2022/11/23 11:04:41;;;;;;;31.13;15.05;;;;;;;11.83;49.32;100119.34;4964347;28;96988;-72
2022/11/23 11:07:21;;;;;;;35.13;15.25;;;;;;;11.66;49.27;100114.03;4967254;28;99034;-72
2022/11/23 11:09:54;;;;;;;28.67;16.02;;;;;;;11.67;49.56;100109.59;4963560;28;99120;-71
2022/11/23 11:12:21;;;;;;;37.80;15.10;;;;;;;11.68;49.67;100112.16;4960879;28;97316;-73
2022/11/23 11:15:02;;;;;;;30.00;14.63;;;;;;;11.82;49.47;100107.03;4967355;28;96910;-74
2022/11/23 11:17:31;;;;;;;34.13;16.27;;;;;;;11.78;49.38;100108.13;4968751;28;99407;-70
2022/11/23 11:20:38;;;;;;;33.70;15.75;;;;;;;11.86;49.79;100105.09;4971394;28;101072;-74
2022/11/23 11:23:17;;;;;;;30.88;14.93;;;;;;;12.09;48.66;100102.13;4965822;28;98629;-71
2022/11/23 11:25:47;;;;;;;32.25;15.48;;;;;;;11.89;49.29;100102.28;4968148;28;96899;-71
2022/11/23 11:28:24;;;;;;;30.73;16.20;;;;;;;12.15;48.58;100101.81;4963891;28;100615;-72